Aérodrome :
LOGIN :

S'inscrire | Disclaimer

   EN    FR    IT 

 










Légende :    VFR   VFR Marginal   IFR   IFR Intensif   IFR Très Intensif
Visi : 
Plafond : 
>= 8 km
>= 3000ft
5 à 8 km
1000 à 3000 ft
1500m à 5 km
500 à 1000 ft
800 à 1500m
200 à 500 ft
< 800m
< 200 ft
Symboles :   Orages  Brouillard  Fortes neiges  Fortes précipitations  Vent > 20 kt
SIGMETs :   Divers  Orages  Givrage  Turbulence  Onde Orograph.  Cendres Volcan.






- Altitude de l'aérodrome : 47 ft
- Code IATA : OUL


EFOU - Oulu

DERNIER METAR :
  • 021120Z AUTO VRB07KT CAVOK 23/08 Q1018

METARs EXPIRÉS :
  • 021050Z AUTO 15007KT 100V200 CAVOK 22/08 Q1018
  • 021020Z AUTO 16009KT 120V210 CAVOK 22/08 Q1018
  • 020950Z AUTO 16007KT 110V210 CAVOK 22/08 Q1019
  • 020920Z AUTO 15008KT 120V210 CAVOK 21/08 Q1019
  • 020850Z AUTO 14010KT 110V190 CAVOK 21/09 Q1019

TAF TAF EFOU
Valide du 02 à 09h jusqu'au 03 à 09h UTC


020824Z 0209/0309 17008KT CAVOK



MET'MAP, la Météo Aéronautique d'un coup d'oeil ! - Copyright ORBIFLY Décembre 2007 - Disclaimer

ORBIFLY MET'MAP TEAM :

Programmation & Développement : Alexandra Zaïnal
Sur une idée originale de : Baudouin d'Aumeries
Assistance à la programmation : Marc-Olivier Méhu
Soutien technique & logistique : Manuel Goepfert

Contact : metmap@orbifly.com




SOURCES & CREDITS :

   NOAA